createdAt,value
2023-03-11T00:00:01.049Z,-0.14
2023-03-11T00:05:00.654Z,-0.19
2023-03-11T00:10:00.582Z,-0.27
2023-03-11T00:15:00.639Z,-0.34
2023-03-11T00:20:00.703Z,-0.40
2023-03-11T00:25:00.634Z,-0.46
2023-03-11T00:30:00.623Z,-0.51
2023-03-11T00:35:00.945Z,-0.54
2023-03-11T00:40:00.578Z,-0.61
2023-03-11T00:45:00.652Z,-0.66
2023-03-11T00:50:00.623Z,-0.71
2023-03-11T00:55:00.567Z,-0.74
2023-03-11T01:00:01.032Z,-0.77
2023-03-11T01:05:00.555Z,-0.78
2023-03-11T01:10:01.185Z,-0.82
2023-03-11T01:15:00.746Z,-0.79
2023-03-11T01:20:00.563Z,-0.76
2023-03-11T01:25:00.734Z,-0.77
2023-03-11T01:30:00.718Z,-0.79
2023-03-11T01:35:00.597Z,-0.83
2023-03-11T01:40:00.629Z,-0.86
2023-03-11T01:45:00.658Z,-0.88
2023-03-11T01:50:02.437Z,-0.90
2023-03-11T01:55:00.694Z,-0.93
2023-03-11T02:00:06.208Z,-0.96
2023-03-11T02:05:01.369Z,-0.95
2023-03-11T02:10:00.673Z,-0.98
2023-03-11T02:15:01.797Z,-0.97
2023-03-11T02:20:00.542Z,-1.02
2023-03-11T02:25:08.018Z,-1.04
2023-03-11T02:30:01.131Z,-1.02
2023-03-11T02:35:00.642Z,-1.02
2023-03-11T02:40:20.459Z,-1.03
2023-03-11T02:45:08.224Z,-1.06
2023-03-11T02:50:00.657Z,-1.08
2023-03-11T02:55:01.230Z,-1.10
2023-03-11T03:00:01.072Z,-1.15
2023-03-11T03:05:00.581Z,-1.19
2023-03-11T03:10:00.560Z,-1.21
2023-03-11T03:15:00.699Z,-1.23
2023-03-11T03:20:00.660Z,-1.26
2023-03-11T03:25:00.559Z,-1.28
2023-03-11T03:30:01.348Z,-1.32
2023-03-11T03:35:01.358Z,-1.33
2023-03-11T03:40:00.908Z,-1.35
2023-03-11T03:45:01.261Z,-1.35
2023-03-11T03:50:02.651Z,-1.35
2023-03-11T03:55:00.876Z,-1.38
2023-03-11T04:00:01.817Z,-1.46
2023-03-11T04:05:00.783Z,-1.50
2023-03-11T04:10:01.147Z,-1.50
2023-03-11T04:15:00.551Z,-1.52
2023-03-11T04:20:00.589Z,-1.53
2023-03-11T04:25:01.344Z,-1.55
2023-03-11T04:30:00.571Z,-1.56
2023-03-11T04:35:00.570Z,-1.59
2023-03-11T04:40:00.620Z,-1.62
2023-03-11T04:45:00.571Z,-1.66
2023-03-11T04:50:00.559Z,-1.67
2023-03-11T04:55:00.602Z,-1.69
2023-03-11T05:00:01.232Z,-1.70
2023-03-11T05:05:00.680Z,-1.72
2023-03-11T05:10:00.788Z,-1.75
2023-03-11T05:15:00.605Z,-1.81
2023-03-11T05:20:00.579Z,-1.87
2023-03-11T05:25:00.670Z,-1.90
2023-03-11T05:30:00.616Z,-1.94
2023-03-11T05:35:00.572Z,-1.97
2023-03-11T05:40:00.599Z,-2.02
2023-03-11T05:45:00.625Z,-2.06
2023-03-11T05:50:00.861Z,-2.12
2023-03-11T05:55:00.576Z,-2.14
2023-03-11T06:00:01.290Z,-2.16
2023-03-11T06:05:00.752Z,-2.19
2023-03-11T06:10:01.192Z,-2.21
2023-03-11T06:15:00.684Z,-2.23
2023-03-11T06:20:00.770Z,-2.21
2023-03-11T06:25:00.627Z,-2.19
2023-03-11T06:30:00.629Z,-2.17
2023-03-11T06:35:00.583Z,-2.18
2023-03-11T06:40:00.602Z,-2.14
2023-03-11T06:45:00.628Z,-2.06
2023-03-11T06:50:00.587Z,-1.92
2023-03-11T06:55:00.624Z,-1.84
2023-03-11T07:00:02.110Z,-1.75
2023-03-11T07:05:00.608Z,-1.70
2023-03-11T07:10:00.647Z,-1.60
2023-03-11T07:15:00.838Z,-1.38
2023-03-11T07:20:00.614Z,-0.88
2023-03-11T07:25:00.633Z,0.69
2023-03-11T07:30:01.472Z,2.37
2023-03-11T07:35:00.584Z,4.27
2023-03-11T07:40:00.642Z,6.20
2023-03-11T07:45:00.631Z,7.63
2023-03-11T07:50:00.555Z,8.28
2023-03-11T07:55:00.579Z,8.88
2023-03-11T08:00:01.402Z,9.55
2023-03-11T08:05:00.659Z,10.11
2023-03-11T08:10:00.686Z,11.05
2023-03-11T08:15:00.653Z,10.55
2023-03-11T08:20:00.626Z,10.30
2023-03-11T08:25:00.669Z,10.33
2023-03-11T08:30:00.656Z,10.46
2023-03-11T08:35:00.649Z,10.48
2023-03-11T08:40:00.641Z,10.76
2023-03-11T08:45:00.802Z,10.48
2023-03-11T08:50:01.325Z,9.86
2023-03-11T08:55:00.604Z,9.14
2023-03-11T09:00:01.060Z,8.96
2023-03-11T09:05:00.687Z,8.70
2023-03-11T09:10:00.721Z,8.78
2023-03-11T09:15:00.574Z,8.32
2023-03-11T09:20:01.184Z,8.90
2023-03-11T09:25:00.619Z,9.21
2023-03-11T09:30:00.581Z,9.36
2023-03-11T09:35:00.642Z,10.28
2023-03-11T09:40:00.606Z,11.04
2023-03-11T09:45:08.336Z,10.45
2023-03-11T09:50:16.615Z,10.42
2023-03-11T09:55:04.413Z,10.00
2023-03-11T10:00:04.094Z,10.19
2023-03-11T10:05:07.416Z,10.91
2023-03-11T10:10:00.729Z,10.83
2023-03-11T10:15:15.323Z,10.99
2023-03-11T10:20:17.778Z,10.78
2023-03-11T10:25:13.574Z,9.97
2023-03-11T10:30:09.086Z,8.83
2023-03-11T10:35:16.425Z,8.53
2023-03-11T10:40:07.484Z,8.78
2023-03-11T10:45:00.597Z,8.71
2023-03-11T10:50:00.587Z,7.96
2023-03-11T10:55:02.346Z,7.75
2023-03-11T11:00:04.944Z,8.15
2023-03-11T11:05:04.394Z,7.90
2023-03-11T11:10:10.538Z,7.45
2023-03-11T11:15:00.602Z,7.41
2023-03-11T11:20:02.831Z,7.21
2023-03-11T11:25:00.716Z,8.22
2023-03-11T11:30:13.387Z,8.92
2023-03-11T11:35:02.815Z,8.98
2023-03-11T11:40:03.671Z,9.79
2023-03-11T11:45:09.506Z,9.88
2023-03-11T11:50:04.813Z,10.13
2023-03-11T11:55:11.514Z,10.61
2023-03-11T12:00:01.663Z,10.79
2023-03-11T12:05:09.617Z,10.52
2023-03-11T12:10:22.776Z,10.67
2023-03-11T12:15:15.902Z,10.53
2023-03-11T12:20:07.713Z,10.34
2023-03-11T12:25:10.517Z,9.81
2023-03-11T12:30:11.301Z,9.79
2023-03-11T12:35:08.214Z,9.58
2023-03-11T12:40:20.458Z,9.53
2023-03-11T12:45:20.470Z,9.61
2023-03-11T12:50:20.465Z,9.48
2023-03-11T12:55:00.573Z,9.25
2023-03-11T13:00:08.440Z,9.05
2023-03-11T13:05:10.538Z,8.85
2023-03-11T13:10:17.851Z,8.85
2023-03-11T13:15:17.853Z,8.81
2023-03-11T13:20:00.734Z,8.96
2023-03-11T13:25:20.453Z,9.00
2023-03-11T13:30:16.830Z,9.17
2023-03-11T13:35:19.156Z,9.08
2023-03-11T13:40:09.438Z,9.09
2023-03-11T13:45:01.068Z,9.04
2023-03-11T13:50:04.917Z,8.77
2023-03-11T13:55:06.198Z,8.76
2023-03-11T14:00:13.982Z,8.84
2023-03-11T14:05:05.697Z,8.70
2023-03-11T14:10:10.509Z,8.68
2023-03-11T14:15:05.279Z,8.68
2023-03-11T14:20:13.616Z,8.68
2023-03-11T14:25:06.170Z,8.47
2023-03-11T14:30:00.835Z,8.19
2023-03-11T14:35:00.830Z,7.93
2023-03-11T14:40:00.980Z,7.87
2023-03-11T14:45:08.741Z,7.82
2023-03-11T14:50:03.185Z,7.80
2023-03-11T14:55:01.869Z,7.62
2023-03-11T15:00:04.153Z,7.69
2023-03-11T15:05:08.841Z,7.86
2023-03-11T15:10:01.095Z,8.01
2023-03-11T15:15:00.784Z,7.94
2023-03-11T15:20:00.602Z,8.02
2023-03-11T15:25:01.576Z,7.95
2023-03-11T15:30:03.303Z,7.78
2023-03-11T15:35:11.717Z,7.77
2023-03-11T15:40:20.457Z,7.67
2023-03-11T15:45:03.868Z,7.70
2023-03-11T15:50:24.152Z,7.72
2023-03-11T15:55:00.566Z,7.59
2023-03-11T16:00:03.179Z,7.70
2023-03-11T16:05:00.774Z,7.57
2023-03-11T16:10:01.715Z,7.14
2023-03-11T16:15:00.957Z,7.11
2023-03-11T16:20:00.605Z,7.16
2023-03-11T16:25:01.665Z,7.14
2023-03-11T16:30:00.664Z,7.02
2023-03-11T16:35:00.605Z,6.88
2023-03-11T16:40:00.599Z,6.73
2023-03-11T16:45:02.229Z,6.57
2023-03-11T16:50:00.732Z,6.29
2023-03-11T16:55:00.771Z,5.94
2023-03-11T17:00:01.062Z,5.71
2023-03-11T17:05:00.893Z,5.55
2023-03-11T17:10:01.139Z,5.42
2023-03-11T17:15:01.560Z,5.26
2023-03-11T17:20:00.716Z,5.12
2023-03-11T17:25:00.597Z,4.95
2023-03-11T17:30:01.694Z,4.82
2023-03-11T17:35:00.651Z,4.69
2023-03-11T17:40:00.642Z,4.56
2023-03-11T17:45:00.669Z,4.44
2023-03-11T17:50:00.615Z,4.29
2023-03-11T17:55:00.596Z,4.10
2023-03-11T18:00:00.985Z,3.94
2023-03-11T18:05:00.598Z,3.79
2023-03-11T18:10:00.762Z,3.65
2023-03-11T18:15:02.921Z,3.52
2023-03-11T18:20:00.752Z,3.40
2023-03-11T18:25:00.606Z,3.27
2023-03-11T18:30:00.592Z,3.21
2023-03-11T18:35:00.594Z,3.17
2023-03-11T18:40:00.866Z,3.11
2023-03-11T18:45:00.826Z,2.99
2023-03-11T18:50:00.689Z,2.90
2023-03-11T18:55:00.602Z,2.89
2023-03-11T19:00:01.119Z,2.88
2023-03-11T19:05:01.173Z,2.92
2023-03-11T19:10:00.661Z,2.94
2023-03-11T19:15:00.597Z,2.91
2023-03-11T19:20:00.777Z,2.91
2023-03-11T19:25:00.930Z,2.84
2023-03-11T19:30:00.643Z,2.77
2023-03-11T19:35:00.601Z,2.78
2023-03-11T19:40:00.655Z,2.72
2023-03-11T19:45:00.667Z,2.70
2023-03-11T19:50:00.725Z,2.71
2023-03-11T19:55:00.733Z,2.71
2023-03-11T20:00:01.982Z,2.68
2023-03-11T20:05:00.843Z,2.62
2023-03-11T20:10:00.718Z,2.53
2023-03-11T20:15:00.654Z,2.48
2023-03-11T20:20:00.689Z,2.46
2023-03-11T20:25:00.634Z,2.42
2023-03-11T20:30:00.730Z,2.40
2023-03-11T20:35:00.673Z,2.41
2023-03-11T20:40:00.652Z,2.42
2023-03-11T20:45:00.637Z,2.41
2023-03-11T20:50:00.671Z,2.39
2023-03-11T20:55:01.220Z,2.39
2023-03-11T21:00:02.139Z,2.37
2023-03-11T21:05:00.803Z,2.35
2023-03-11T21:10:03.022Z,2.37
2023-03-11T21:15:00.721Z,2.40
2023-03-11T21:20:01.056Z,2.43
2023-03-11T21:25:00.813Z,2.48
2023-03-11T21:30:00.781Z,2.48
2023-03-11T21:35:00.833Z,2.42
2023-03-11T21:40:00.760Z,2.41
2023-03-11T21:45:00.755Z,2.43
2023-03-11T21:50:00.742Z,2.45
2023-03-11T21:55:00.699Z,2.48
2023-03-11T22:00:01.280Z,2.43
2023-03-11T22:05:00.820Z,2.38
2023-03-11T22:10:00.769Z,2.37
2023-03-11T22:15:00.960Z,2.39
2023-03-11T22:20:00.967Z,2.42
2023-03-11T22:25:00.776Z,2.50
2023-03-11T22:30:00.688Z,2.54
2023-03-11T22:35:00.691Z,2.60
2023-03-11T22:40:00.594Z,2.61
2023-03-11T22:45:00.655Z,2.60
2023-03-11T22:50:00.658Z,2.60
2023-03-11T22:55:00.590Z,2.59
2023-03-11T23:00:01.097Z,2.59
2023-03-11T23:05:00.607Z,2.58
2023-03-11T23:10:00.737Z,2.57
2023-03-11T23:15:01.475Z,2.53
2023-03-11T23:20:01.060Z,2.53
2023-03-11T23:25:02.133Z,2.55
2023-03-11T23:30:00.653Z,2.55
2023-03-11T23:35:00.618Z,2.58
2023-03-11T23:40:00.614Z,2.59
2023-03-11T23:45:00.699Z,2.61
2023-03-11T23:50:00.666Z,2.61
2023-03-11T23:55:01.076Z,2.61
